Latest Weather Observations for Edithburgh

IDS60801

Issued at 11:01 pm CST Saturday 28 May 2016 (issued every 30 minutes, with the page automatically refreshed every 10 minutes)

About weather observations | Map of weather stations | Latest weather observations for SA | Other Formats
Station Details ID: 022046 Name: EDITHBURGH Lat: -35.11 Lon: 137.74 Height: 6.0 m
Data from the previous 72 hours. | See also: Recent months at Edithburgh
Date/Time
CST
Temp
°C
App
Temp
°C
Dew
Point
Rel
Hum
%
Delta-T
°C
Wind Press
QNH
hPa
Press
MSL
hPa
Rain
since 9 am
mm
Dir
 
Spd
km/h
Gust
km/h
Spd
kts
Gust
kts
28/11:00pm 9.2 7.7 8.4 95 0.4 N 6 6 3 3 1018.5 1018.5 0.6
28/10:30pm 9.6 8.5 8.4 92 0.6 NNW 4 6 2 3 1018.7 1018.7 0.6
28/10:00pm 10.1 8.5 8.7 91 0.7 NNW 7 7 4 4 1018.8 1018.8 0.6
28/09:30pm 10.5 9.6 9.1 91 0.7 NNW 4 6 2 3 1018.8 1018.8 0.6
28/09:00pm 10.6 9.3 9.2 91 0.7 NNW 6 6 3 3 1018.7 1018.7 0.6
28/08:30pm 10.9 9.7 9.5 91 0.7 NW 6 7 3 4 1018.7 1018.7 0.6
28/08:00pm 11.0 9.8 9.4 90 0.8 NW 6 9 3 5 1018.8 1018.8 0.6
28/07:30pm 11.2 9.8 9.4 89 0.9 WNW 7 9 4 5 1018.6 1018.6 0.6
28/07:00pm 11.4 11.2 9.0 85 1.2 CALM 0 0 0 0 1018.3 1018.3 0.6
28/06:30pm 11.4 10.5 9.2 86 1.1 SE 4 6 2 3 1018.1 1018.1 0.6
28/06:00pm 12.2 11.7 9.2 82 1.5 ESE 2 4 1 2 1017.9 1017.9 0.6
28/05:30pm 12.3 11.4 9.3 82 1.5 SE 4 6 2 3 1017.7 1017.7 0.6
28/05:00pm 13.2 12.5 9.9 80 1.7 SE 4 6 2 3 1017.6 1017.6 0.6
28/04:30pm 13.7 11.9 9.6 76 2.1 SSE 9 11 5 6 1017.6 1017.6 0.6
28/04:00pm 14.2 13.0 9.7 74 2.3 SSW 6 7 3 4 1017.5 1017.5 0.6
28/03:30pm 14.7 13.5 9.4 70 2.7 SW 6 9 3 5 1017.2 1017.2 0.6
28/03:00pm 14.7 13.0 8.5 66 3.1 SSW 7 11 4 6 1017.0 1017.0 0.6
28/02:30pm 15.3 14.0 9.3 67 3.1 WSW 6 7 3 4 1016.8 1016.8 0.6
28/02:00pm 14.8 14.5 10.0 73 2.5 W 2 4 1 2 1016.9 1016.9 0.6
28/01:30pm 14.1 13.6 10.7 80 1.8 SW 4 6 2 3 1016.8 1016.8 0.6
28/01:00pm 13.3 12.7 11.6 89 0.9 SW 6 7 3 4 1017.1 1017.1 0.6
28/12:30pm 13.1 10.8 11.6 91 0.8 SSW 15 20 8 11 1017.4 1017.4 0.6
28/12:00pm 15.1 12.7 8.6 65 3.3 SE 11 15 6 8 1017.2 1017.2 0.0
28/11:30am 15.3 13.1 9.3 67 3.1 SE 11 15 6 8 1017.4 1017.4 0.0
28/11:00am 15.2 12.5 9.1 67 3.1 SE 13 17 7 9 1017.6 1017.6 0.0
28/10:30am 15.3 12.3 9.3 67 3.1 SE 15 20 8 11 1017.5 1017.5 0.0
28/10:00am 14.2 12.5 9.7 74 2.3 SE 9 13 5 7 1017.3 1017.3 0.0
28/09:30am 14.7 11.3 9.2 69 2.8 SE 17 22 9 12 1016.9 1016.9 0.0
28/09:00am 14.5 10.8 9.4 71 2.6 SSE 19 28 10 15 1016.4 1016.4 -
28/08:30am 14.8 10.5 9.3 69 2.8 SSE 22 28 12 15 1016.1 1016.1 -
28/08:00am 13.9 9.8 10.2 78 1.9 SSE 22 35 12 19 1015.6 1015.6 -
28/07:30am 14.1 9.5 9.6 74 2.3 S 24 33 13 18 1015.3 1015.3 -
28/07:00am 14.1 9.1 9.4 73 2.4 S 26 33 14 18 1014.7 1014.7 -
28/06:30am 13.9 8.4 9.2 73 2.4 S 28 39 15 21 1014.1 1014.1 -
28/06:00am 14.0 7.9 9.9 76 2.1 S 32 41 17 22 1013.2 1013.2 -
28/05:30am 14.0 7.4 9.9 76 2.1 S 35 50 19 27 1012.7 1012.7 -
28/05:00am 13.8 8.4 11.0 83 1.5 SSW 30 41 16 22 1012.3 1012.3 -
28/04:30am 14.1 7.9 9.4 73 2.4 S 32 46 17 25 1012.0 1012.0 -
28/04:00am 13.7 7.8 10.4 80 1.7 SSW 32 41 17 22 1011.8 1011.8 -
28/03:30am 13.7 8.5 10.2 79 1.8 SSW 28 39 15 21 1011.6 1011.6 -
28/03:00am 13.5 8.6 10.0 79 1.8 SSW 26 33 14 18 1011.4 1011.4 0.2
28/02:30am 13.4 9.1 9.3 76 2.1 SSW 22 30 12 16 1011.2 1011.2 -
28/02:00am 13.4 9.5 9.5 77 2.0 SW 20 30 11 16 1011.0 1011.0 -
28/01:30am 12.9 8.9 8.9 76 2.0 SSW 20 32 11 17 1010.6 1010.6 -
28/01:00am 9.4 7.5 7.7 89 0.8 W 7 11 4 6 1010.3 1010.3 -
28/12:30am 9.8 7.7 8.4 91 0.7 W 9 11 5 6 1010.3 1010.3 -
28/12:00am 9.9 6.7 8.5 91 0.7 WNW 15 19 8 10 1010.3 1010.3 -
 
Date/Time
CST
Temp
°C
App
Temp
°C
Dew
Point
Rel
Hum
%
Delta-T
°C
Wind Press
QNH
hPa
Press
MSL
hPa
Rain
since 9 am
mm
Dir
 
Spd
km/h
Gust
km/h
Spd
kts
Gust
kts
27/11:30pm 9.7 6.3 7.8 88 0.9 WNW 15 19 8 10 1010.2 1010.2 -
27/11:00pm 11.0 6.9 8.8 86 1.1 WNW 20 28 11 15 1010.1 1010.1 -
27/10:30pm 10.8 6.7 8.6 86 1.1 WNW 20 26 11 14 1010.0 1010.0 -
27/10:00pm 11.6 5.5 8.1 79 1.7 W 30 41 16 22 1010.0 1010.0 -
27/09:30pm 12.4 6.9 7.5 72 2.4 WSW 26 43 14 23 1009.7 1009.7 -
27/09:00pm 12.3 7.4 6.9 69 2.6 WSW 22 35 12 19 1009.8 1009.8 0.8
27/08:48pm 12.2 6.6 8.6 78 1.8 SW 28 46 15 25 1009.9 1009.9 -
27/08:30pm 13.3 8.3 8.1 71 2.6 SW 24 39 13 21 1009.7 1009.7 -
27/08:00pm 13.4 6.7 7.3 66 3.0 SW 32 44 17 24 1009.3 1009.3 -
27/07:39pm 13.6 6.4 7.7 67 2.9 SW 35 56 19 30 1009.1 1009.1 -
27/07:30pm 13.2 6.5 7.2 67 2.9 SW 32 43 17 23 1009.0 1009.0 -
27/07:00pm 12.2 7.9 7.9 75 2.1 WSW 20 30 11 16 1009.0 1009.0 -
27/06:30pm 12.1 7.3 7.4 73 2.3 WSW 22 33 12 18 1008.4 1008.4 -
27/06:09pm 11.8 5.7 8.1 78 1.8 WSW 30 50 16 27 1008.0 1008.0 -
27/06:00pm 12.3 4.4 7.8 74 2.2 SW 39 54 21 29 1008.1 1008.1 -
27/05:47pm 12.4 5.6 7.0 69 2.6 SW 32 52 17 28 1008.1 1008.1 -
27/05:30pm 11.9 5.5 7.1 72 2.3 SW 30 37 16 20 1007.9 1007.9 -
27/05:10pm 12.3 6.2 6.7 68 2.7 WSW 28 50 15 27 1007.6 1007.6 -
27/05:00pm 12.0 6.9 7.5 74 2.2 WSW 24 41 13 22 1007.6 1007.6 -
27/04:30pm 11.1 6.0 7.8 80 1.6 W 24 32 13 17 1007.0 1007.0 -
27/04:00pm 11.7 6.6 7.6 76 2.0 WSW 24 37 13 20 1006.9 1006.9 -
27/03:30pm 11.7 6.6 7.6 76 2.0 WSW 24 33 13 18 1006.8 1006.8 -
27/03:00pm 10.5 3.2 7.1 79 1.6 WSW 35 69 19 37 1006.8 1006.8 -
27/02:55pm 12.7 6.2 6.7 67 2.9 SW 30 69 16 37 1006.4 1006.4 -
27/02:30pm 11.8 5.7 6.8 71 2.4 WSW 28 48 15 26 1006.4 1006.4 -
27/02:21pm 12.4 6.3 6.5 67 2.8 WSW 28 48 15 26 1006.3 1006.3 -
27/02:00pm 13.0 7.9 7.5 69 2.7 W 24 35 13 19 1006.0 1006.0 -
27/01:30pm 12.0 6.3 8.4 78 1.8 W 28 41 15 22 1006.2 1006.2 -
27/01:00pm 12.6 7.8 7.2 69 2.6 WSW 22 30 12 16 1006.5 1006.5 -
27/12:30pm 11.3 5.1 7.8 79 1.7 WSW 30 43 16 23 1007.0 1007.0 -
27/12:16pm 11.1 5.3 8.0 81 1.5 WSW 28 46 15 25 1007.4 1007.4 -
27/12:00pm 10.9 3.9 8.5 85 1.2 WSW 35 61 19 33 1007.4 1007.4 -
27/11:46am 10.9 3.2 8.7 86 1.1 WSW 39 70 21 38 1007.5 1007.5 -
27/11:45am 10.9 3.6 8.9 87 1.0 WSW 37 70 20 38 1007.2 1007.2 -
27/11:44am 11.4 5.1 9.6 89 0.9 WSW 33 70 18 38 1007.6 1007.6 -
27/11:30am 12.2 6.4 9.4 83 1.4 W 30 43 16 23 1007.3 1007.3 -
27/11:00am 12.8 - 9.5 80 1.7 - - - - - 1007.4 1007.4 -
27/09:00am 13.9 10.8 10.3 79 1.9 WNW 17 24 9 13 1007.8 1007.8 2.0
27/08:30am 12.6 9.8 10.1 85 1.3 WNW 15 19 8 10 1008.0 1008.0 2.0
27/08:00am 12.4 9.0 10.5 88 1.0 NW 19 22 10 12 1007.9 1007.9 2.0
27/07:30am 12.0 8.5 10.3 89 0.9 NW 19 24 10 13 1008.0 1008.0 2.0
27/07:00am 12.3 8.7 10.4 88 1.0 NW 20 24 11 13 1008.0 1008.0 2.0
27/06:30am 12.3 7.9 10.4 88 1.0 WNW 24 35 13 19 1008.1 1008.1 1.8
27/06:00am 12.9 7.6 10.0 82 1.5 NW 28 39 15 21 1007.8 1007.8 0.6
27/05:30am 12.9 7.6 9.8 81 1.6 NW 28 35 15 19 1007.8 1007.8 0.6
27/05:00am 13.2 8.5 10.7 85 1.3 WNW 26 33 14 18 1007.9 1007.9 0.6
27/04:30am 13.2 10.1 11.5 89 0.9 NW 19 24 10 13 1008.2 1008.2 0.6
27/04:00am 12.4 10.0 11.5 94 0.5 NNW 15 17 8 9 1008.4 1008.4 0.6
27/03:30am 12.2 10.5 11.2 94 0.5 NNW 11 13 6 7 1008.8 1008.8 0.6
27/03:00am 11.2 9.2 10.2 94 0.5 NNW 11 13 6 7 1009.1 1009.1 0.2
27/02:30am 9.2 6.7 8.2 93 0.5 NNW 11 13 6 7 1009.4 1009.4 0.0
27/02:00am 10.4 7.4 9.4 93 0.5 N 15 17 8 9 1009.7 1009.7 0.0
27/01:30am 8.9 6.8 8.3 96 0.3 NNW 9 11 5 6 1010.0 1010.0 0.0
27/01:00am 8.6 6.1 8.0 96 0.3 NNW 11 13 6 7 1010.3 1010.3 0.0
27/12:30am 8.4 6.1 7.6 95 0.4 NNW 9 11 5 6 1010.6 1010.6 0.0
27/12:00am 8.8 6.3 8.0 95 0.4 NNW 11 15 6 8 1010.7 1010.7 0.0
 
Date/Time
CST
Temp
°C
App
Temp
°C
Dew
Point
Rel
Hum
%
Delta-T
°C
Wind Press
QNH
hPa
Press
MSL
hPa
Rain
since 9 am
mm
Dir
 
Spd
km/h
Gust
km/h
Spd
kts
Gust
kts
26/11:30pm 9.0 7.2 8.0 93 0.5 NNW 7 9 4 5 1011.0 1011.0 0.0
26/11:00pm 9.9 7.9 8.7 92 0.6 NW 9 11 5 6 1011.1 1011.1 0.0
26/10:30pm 10.7 8.0 9.1 90 0.8 NW 13 17 7 9 1011.4 1011.4 0.0
26/10:00pm 9.7 6.8 8.0 89 0.8 WNW 13 17 7 9 1011.6 1011.6 0.0
26/09:30pm 8.9 5.8 7.4 90 0.7 WNW 13 15 7 8 1011.8 1011.8 0.0
26/09:00pm 10.4 8.0 8.6 89 0.9 WNW 11 13 6 7 1011.8 1011.8 0.0
26/08:30pm 10.3 7.0 8.2 87 1.0 WNW 15 19 8 10 1011.9 1011.9 0.0
26/08:00pm 11.0 7.9 8.8 86 1.1 WNW 15 17 8 9 1011.8 1011.8 0.0
26/07:30pm 11.3 8.2 8.9 85 1.2 WNW 15 17 8 9 1011.5 1011.5 0.0
26/07:00pm 11.3 8.6 8.9 85 1.2 WNW 13 15 7 8 1011.3 1011.3 0.0
26/06:30pm 11.9 9.1 8.7 81 1.6 WNW 13 17 7 9 1011.3 1011.3 0.0
26/06:00pm 12.3 10.4 8.9 80 1.7 WNW 9 13 5 7 1010.9 1010.9 0.0
26/05:30pm 13.3 11.3 8.5 72 2.4 W 9 15 5 8 1010.5 1010.5 0.0
26/05:00pm 14.9 12.2 9.0 68 3.0 WSW 13 19 7 10 1010.4 1010.4 0.0
26/04:30pm 15.9 13.2 8.9 63 3.6 WSW 13 20 7 11 1010.1 1010.1 0.0
26/04:00pm 16.4 12.5 6.9 53 4.7 WSW 17 24 9 13 1009.8 1009.8 0.0
26/03:30pm 17.1 14.0 9.0 59 4.2 WSW 15 22 8 12 1009.7 1009.7 0.0
26/03:00pm 17.1 13.9 8.5 57 4.4 WSW 15 24 8 13 1009.6 1009.6 0.0
26/02:30pm 17.1 13.9 8.3 56 4.5 SW 15 24 8 13 1009.3 1009.3 0.0
26/02:00pm 17.0 12.9 7.7 54 4.7 WSW 19 26 10 14 1009.3 1009.3 0.0
26/01:30pm 17.4 13.8 8.4 55 4.6 SW 17 30 9 16 1009.4 1009.4 0.0
26/01:00pm 16.5 12.8 7.8 56 4.4 SW 17 24 9 13 1009.8 1009.8 0.0
26/12:30pm 17.2 13.6 8.2 55 4.6 SW 17 24 9 13 1009.7 1009.7 0.0
26/12:00pm 16.7 12.6 8.0 56 4.4 SW 19 28 10 15 1010.0 1010.0 0.0
26/11:30am 15.7 12.0 7.9 59 3.9 SW 17 28 9 15 1010.1 1010.1 0.0
26/11:00am 16.9 13.8 9.0 59 4.1 SW 15 22 8 12 1010.3 1010.3 0.0
26/10:30am 16.2 12.5 8.1 58 4.1 SW 17 22 9 12 1010.2 1010.2 0.0
26/10:00am 15.9 13.2 8.9 63 3.6 SSW 13 17 7 9 1010.0 1010.0 0.0
26/09:30am 15.7 12.9 8.6 62 3.6 SW 13 19 7 10 1009.9 1009.9 0.0
26/09:00am 15.2 13.2 8.7 65 3.3 WSW 9 15 5 8 1009.7 1009.7 3.4
26/08:30am 14.3 12.4 9.2 71 2.6 WSW 9 15 5 8 1009.6 1009.6 3.4
26/08:00am 12.5 10.9 8.7 77 1.9 WSW 7 11 4 6 1009.4 1009.4 3.4
26/07:30am 12.2 10.1 8.4 77 1.9 SW 9 13 5 7 1009.2 1009.2 3.4
26/07:00am 13.0 10.5 9.7 80 1.7 SW 13 17 7 9 1009.2 1009.2 3.4
26/06:30am 12.3 9.6 9.1 81 1.6 SW 13 19 7 10 1008.8 1008.8 3.4
26/06:00am 12.5 9.8 9.1 80 1.7 SW 13 17 7 9 1008.4 1008.4 3.4
26/05:30am 11.9 10.2 9.7 86 1.1 SW 9 13 5 7 1008.3 1008.3 3.4
26/05:00am 12.5 11.0 10.4 87 1.1 W 9 11 5 6 1008.2 1008.2 3.4
26/04:30am 13.7 12.4 11.4 86 1.2 WSW 9 15 5 8 1007.9 1007.9 3.4
26/04:00am 14.0 11.4 10.8 81 1.7 SW 15 22 8 12 1007.6 1007.6 3.2
26/03:30am 13.7 11.9 10.9 83 1.5 WSW 11 17 6 9 1007.7 1007.7 3.2
26/03:00am 13.8 12.0 11.0 83 1.5 SW 11 15 6 8 1007.7 1007.7 3.2
26/02:30am 13.8 12.0 11.0 83 1.5 SW 11 15 6 8 1007.2 1007.2 3.2
26/02:00am 14.0 11.1 11.0 82 1.6 SW 17 20 9 11 1007.2 1007.2 3.2
26/01:30am 13.9 10.6 10.9 82 1.6 SSW 19 24 10 13 1007.0 1007.0 3.2
26/01:00am 13.7 10.8 11.1 84 1.4 SSW 17 20 9 11 1006.8 1006.8 3.2
26/12:30am 13.9 10.8 11.5 85 1.3 SSW 19 26 10 14 1006.9 1006.9 3.2
26/12:00am 13.6 11.7 11.9 89 0.9 SSW 13 15 7 8 1006.9 1006.9 3.2
 
Date/Time
CST
Temp
°C
App
Temp
°C
Dew
Point
Rel
Hum
%
Delta-T
°C
Wind Press
QNH
hPa
Press
MSL
hPa
Rain
since 9 am
mm
Dir
 
Spd
km/h
Gust
km/h
Spd
kts
Gust
kts
25/11:30pm 14.1 12.9 12.8 92 0.7 SSW 11 15 6 8 1007.1 1007.1 3.2

Other Formats:

Comma delimited format used in spreadsheet applications
http://www.bom.gov.au/fwo/IDS60801/IDS60801.94809.axf

JavaScript Object Notation format (JSON) in row-major order
http://www.bom.gov.au/fwo/IDS60801/IDS60801.94809.json